Smithers Airport
CYYD : now visible

Airfield :











YOU CAN JOIN US ON...

 
LOGIN :

Register | Disclaimer

   EN    FR    IT 

 









Legend :    VFR   Marginal VFR   IFR   Intensive IFR   Very Intensive IFR
Visi :
Ceiling :
>= 8 km
>= 3000ft
5 to 8 km
1000 to 3000 ft
1500m to 5 km
500 to 1000 ft
800 to 1500m
200 to 500 ft
< 800m
< 200 ft
Symbols :   Thunderstorms  Fog  Heavy snow  Heavy precipitations  Wind > 20 kt






- Airport Elevation : 1712 ft
- IATA code : YYD


CYYD - Smithers

CURRENT METAR :
  • 252000Z 35004KT 330V070 25SM FEW006 BKN030 OVC055 13/11 A3013 RMK SF2SC3SC3 SLP213

EXPIRED METARs :
  • 251900Z 02002KT 25SM SCT006 BKN025 OVC055 12/11 A3014 RMK SF3SC3SC2 SLP215
  • 251845Z 00000KT 20SM SCT006 BKN025 OVC055 12/11 A3013 RMK SF3SC3SC2 SLP214
  • 251800Z VRB02KT 20SM -RA SCT005 BKN025 OVC055 12/10 A3014 RMK SF4SC2SC2 SLP216

TAF TAF CYYD
Valid from the 25 at 19:00 until the 26 at 06:00 UTC


251840Z 2519/2606 VRB03KT P6SM -RA FEW005 BKN025 OVC050
TEMPO 2519/2521 SCT005 BKN020
FM252100 VRB03KT P6SM SCT040 BKN060
TEMPO 2521/2606 P6SM -SHRA BKN030 RMK NXT FCST BY 260100Z
CZVR FIR / North America



MET'MAP, your aeronautical weather chart ! - Copyright ORBIFLY December 2007 - Disclaimer

ORBIFLY MET'MAP TEAM :

Programming & Development : Alexandra Zaïnal
Original concept : Baudouin d'Aumeries
Technical & hardware support : Manuel Goepfert
Assistance : Marc-Olivier Méhu




SOURCES & CREDITS :

   NOAA       Earth
Advisory